Dumas, AR (71639)

9:49 AM CDT on July 25, 2016 (GMT -0500)
McGehee-Wolfe Dr | | Change Station

Elev 171 ft 33.64 °N, 91.40 °W | Updated 11 minutes ago

Clear
Clear
86.4 °F
Feels Like 99 °F
N
2.7
Wind Variable Wind from ENE

Today
High -- | Low -- °F
--% Chance of Precip.
Yesterday
High -- | Low -- °F
Precip. -- in
Pressure 30.00 in
Visibility 10.0 miles
Clouds Clear
Heat Index 99 °F
Dew Point 78 °F
Humidity 76%
Rainfall 0.00 in
Snow Depth Not available.
6:13 AM 8:11 PM
Waning Gibbous, 65% visible
METAR KLLQ 251353Z AUTO 16004KT 10SM CLR 28/23 A3001 RMK AO2 SLP158 T02780228
Pressure 30.00 in
Visibility 10.0 miles
Clouds Clear
Heat Index 99 °F
Dew Point 78 °F
Humidity 76%
Rainfall 0.00 in
Snow Depth Not available.
6:13 AM 8:11 PM
Waning Gibbous, 65% visible
METAR KLLQ 251353Z AUTO 16004KT 10SM CLR 28/23 A3001 RMK AO2 SLP158 T02780228

10-Day Weather Forecast

Almanac

Astronomy

Jul. 25, 2016 Rise Set
Actual Time
Civil Twilight
Nautical Twilight
Astronomical Twilight
Moon
Length of Visible Light
Length of Day
Tomorrow will be .
, % of the Moon is Illuminated

Today's Extremes

State Highs State Lows

Community

WunderPhotos

Upload Photos

1,927,305 photos uploaded!

WunderBlog® & News

Nearby

Air Quality

  Air Quality AQ Index Pollutant
Not available.

Snow Depth

Station Depth Elevation

Earthquake Activity

City Distance Mag. Time & Date
Minimum magnitude displayed is 2.5.

Coastal Water Temperatures

Place Temperature

Stations

Nearby Weather Stations

Station Location Temp. Windchill Dew Point Humidity Wind Precip. Elev Updated Type
                   

Watches & Warnings

There are currently no watches in effect.